sensor_id;sensor_type;location;lat;lon;timestamp;temperature;humidity
28193;DHT22;15473;50.840;3.396;2022-12-20T00:01:09;8.20;99.90
28193;DHT22;15473;50.840;3.396;2022-12-20T00:03:39;8.10;99.90
28193;DHT22;15473;50.840;3.396;2022-12-20T00:06:10;8.10;99.90
28193;DHT22;15473;50.840;3.396;2022-12-20T00:08:40;8.10;99.90
28193;DHT22;15473;50.840;3.396;2022-12-20T00:11:17;8.10;99.90
28193;DHT22;15473;50.840;3.396;2022-12-20T00:13:50;8.10;99.90
28193;DHT22;15473;50.840;3.396;2022-12-20T00:16:22;8.10;99.90
28193;DHT22;15473;50.840;3.396;2022-12-20T00:19:02;8.10;99.90
28193;DHT22;15473;50.840;3.396;2022-12-20T00:21:38;8.10;99.90
28193;DHT22;15473;50.840;3.396;2022-12-20T00:24:09;8.10;99.90
28193;DHT22;15473;50.840;3.396;2022-12-20T00:26:46;8.10;99.90
28193;DHT22;15473;50.840;3.396;2022-12-20T00:29:23;8.10;99.90
28193;DHT22;15473;50.840;3.396;2022-12-20T00:31:53;8.10;99.90
28193;DHT22;15473;50.840;3.396;2022-12-20T00:34:29;8.10;99.90
28193;DHT22;15473;50.840;3.396;2022-12-20T00:37:12;8.10;99.90
28193;DHT22;15473;50.840;3.396;2022-12-20T00:39:42;8.10;99.90
28193;DHT22;15473;50.840;3.396;2022-12-20T00:42:18;8.10;99.90
28193;DHT22;15473;50.840;3.396;2022-12-20T00:44:54;8.10;99.90
28193;DHT22;15473;50.840;3.396;2022-12-20T00:47:24;8.10;99.90
28193;DHT22;15473;50.840;3.396;2022-12-20T00:50:01;8.10;99.90
28193;DHT22;15473;50.840;3.396;2022-12-20T00:52:32;8.00;99.90
28193;DHT22;15473;50.840;3.396;2022-12-20T00:55:08;8.00;99.90
28193;DHT22;15473;50.840;3.396;2022-12-20T00:57:44;8.00;99.90
28193;DHT22;15473;50.840;3.396;2022-12-20T01:00:14;8.00;99.90
28193;DHT22;15473;50.840;3.396;2022-12-20T01:02:51;8.00;99.90
28193;DHT22;15473;50.840;3.396;2022-12-20T01:05:22;8.00;99.90
28193;DHT22;15473;50.840;3.396;2022-12-20T01:07:52;8.00;99.90
28193;DHT22;15473;50.840;3.396;2022-12-20T01:10:22;8.00;99.90
28193;DHT22;15473;50.840;3.396;2022-12-20T01:13:03;8.00;99.90
28193;DHT22;15473;50.840;3.396;2022-12-20T01:15:33;8.00;99.90
28193;DHT22;15473;50.840;3.396;2022-12-20T01:18:10;8.00;99.90
28193;DHT22;15473;50.840;3.396;2022-12-20T01:20:46;8.00;99.90
28193;DHT22;15473;50.840;3.396;2022-12-20T01:23:22;8.00;99.90
28193;DHT22;15473;50.840;3.396;2022-12-20T01:25:52;8.00;99.90
28193;DHT22;15473;50.840;3.396;2022-12-20T01:28:22;8.00;99.90
28193;DHT22;15473;50.840;3.396;2022-12-20T01:31:09;8.00;99.90
28193;DHT22;15473;50.840;3.396;2022-12-20T01:33:47;8.00;99.90
28193;DHT22;15473;50.840;3.396;2022-12-20T01:36:21;8.10;99.90
28193;DHT22;15473;50.840;3.396;2022-12-20T01:39:02;8.00;99.90
28193;DHT22;15473;50.840;3.396;2022-12-20T01:41:34;8.00;99.90
28193;DHT22;15473;50.840;3.396;2022-12-20T01:46:57;8.10;99.90
28193;DHT22;15473;50.840;3.396;2022-12-20T01:49:37;8.10;99.90
28193;DHT22;15473;50.840;3.396;2022-12-20T01:52:10;8.10;99.90
28193;DHT22;15473;50.840;3.396;2022-12-20T01:54:50;8.10;99.90
28193;DHT22;15473;50.840;3.396;2022-12-20T01:57:33;8.10;99.90
28193;DHT22;15473;50.840;3.396;2022-12-20T02:00:01;8.10;99.90
28193;DHT22;15473;50.840;3.396;2022-12-20T02:02:32;8.20;99.90
28193;DHT22;15473;50.840;3.396;2022-12-20T02:05:06;8.10;99.90
28193;DHT22;15473;50.840;3.396;2022-12-20T02:07:44;8.10;99.90
28193;DHT22;15473;50.840;3.396;2022-12-20T02:10:19;8.20;99.90
28193;DHT22;15473;50.840;3.396;2022-12-20T02:13:01;8.20;99.90
28193;DHT22;15473;50.840;3.396;2022-12-20T02:18:32;8.20;99.90
28193;DHT22;15473;50.840;3.396;2022-12-20T02:21:21;8.20;99.90
28193;DHT22;15473;50.840;3.396;2022-12-20T02:27:17;8.20;99.90
28193;DHT22;15473;50.840;3.396;2022-12-20T02:30:13;8.20;99.90
28193;DHT22;15473;50.840;3.396;2022-12-20T02:33:07;8.20;99.90
28193;DHT22;15473;50.840;3.396;2022-12-20T02:35:41;8.30;99.90
28193;DHT22;15473;50.840;3.396;2022-12-20T02:38:29;8.30;99.90
28193;DHT22;15473;50.840;3.396;2022-12-20T02:41:18;8.30;99.90
28193;DHT22;15473;50.840;3.396;2022-12-20T02:43:56;8.30;99.90
28193;DHT22;15473;50.840;3.396;2022-12-20T02:46:42;8.30;99.90
28193;DHT22;15473;50.840;3.396;2022-12-20T02:49:21;8.30;99.90
28193;DHT22;15473;50.840;3.396;2022-12-20T02:51:54;8.30;99.90
28193;DHT22;15473;50.840;3.396;2022-12-20T02:54:25;8.30;99.90
28193;DHT22;15473;50.840;3.396;2022-12-20T02:56:59;8.40;99.90
28193;DHT22;15473;50.840;3.396;2022-12-20T02:59:31;8.40;99.90
28193;DHT22;15473;50.840;3.396;2022-12-20T03:02:03;8.40;99.90
28193;DHT22;15473;50.840;3.396;2022-12-20T03:04:40;8.40;99.90
28193;DHT22;15473;50.840;3.396;2022-12-20T03:07:13;8.40;99.90
28193;DHT22;15473;50.840;3.396;2022-12-20T03:09:49;8.40;99.90
28193;DHT22;15473;50.840;3.396;2022-12-20T03:12:26;8.40;99.90
28193;DHT22;15473;50.840;3.396;2022-12-20T03:15:02;8.40;99.90
28193;DHT22;15473;50.840;3.396;2022-12-20T03:17:39;8.40;99.90
28193;DHT22;15473;50.840;3.396;2022-12-20T03:20:09;8.40;99.90
28193;DHT22;15473;50.840;3.396;2022-12-20T03:22:39;8.40;99.90
28193;DHT22;15473;50.840;3.396;2022-12-20T03:25:09;8.40;99.90
28193;DHT22;15473;50.840;3.396;2022-12-20T03:27:39;8.40;99.90
28193;DHT22;15473;50.840;3.396;2022-12-20T03:30:10;8.40;99.90
28193;DHT22;15473;50.840;3.396;2022-12-20T03:32:46;8.40;99.90
28193;DHT22;15473;50.840;3.396;2022-12-20T03:35:16;8.40;99.90
28193;DHT22;15473;50.840;3.396;2022-12-20T03:37:46;8.40;99.90
28193;DHT22;15473;50.840;3.396;2022-12-20T03:40:17;8.40;99.90
28193;DHT22;15473;50.840;3.396;2022-12-20T03:42:48;8.40;99.90
28193;DHT22;15473;50.840;3.396;2022-12-20T03:45:24;8.40;99.90
28193;DHT22;15473;50.840;3.396;2022-12-20T03:48:01;8.40;99.90
28193;DHT22;15473;50.840;3.396;2022-12-20T03:50:31;8.40;99.90
28193;DHT22;15473;50.840;3.396;2022-12-20T03:53:01;8.40;99.90
28193;DHT22;15473;50.840;3.396;2022-12-20T03:55:31;8.40;99.90
28193;DHT22;15473;50.840;3.396;2022-12-20T03:58:01;8.40;99.90
28193;DHT22;15473;50.840;3.396;2022-12-20T04:00:37;8.50;99.90
28193;DHT22;15473;50.840;3.396;2022-12-20T04:03:07;8.50;99.90
28193;DHT22;15473;50.840;3.396;2022-12-20T04:05:41;8.50;99.90
28193;DHT22;15473;50.840;3.396;2022-12-20T04:08:11;8.50;99.90
28193;DHT22;15473;50.840;3.396;2022-12-20T04:10:41;8.40;99.90
28193;DHT22;15473;50.840;3.396;2022-12-20T04:13:16;8.50;99.90
28193;DHT22;15473;50.840;3.396;2022-12-20T04:15:52;8.40;99.90
28193;DHT22;15473;50.840;3.396;2022-12-20T04:18:29;8.40;99.90
28193;DHT22;15473;50.840;3.396;2022-12-20T04:21:05;8.40;99.90
28193;DHT22;15473;50.840;3.396;2022-12-20T04:23:36;8.50;99.90
28193;DHT22;15473;50.840;3.396;2022-12-20T04:26:08;8.40;99.90
28193;DHT22;15473;50.840;3.396;2022-12-20T04:28:38;8.40;99.90
28193;DHT22;15473;50.840;3.396;2022-12-20T04:31:16;8.40;99.90
28193;DHT22;15473;50.840;3.396;2022-12-20T04:33:46;8.40;99.90
28193;DHT22;15473;50.840;3.396;2022-12-20T04:36:23;8.40;99.90
28193;DHT22;15473;50.840;3.396;2022-12-20T04:38:53;8.40;99.90
28193;DHT22;15473;50.840;3.396;2022-12-20T04:41:23;8.40;99.90
28193;DHT22;15473;50.840;3.396;2022-12-20T04:43:56;8.40;99.90
28193;DHT22;15473;50.840;3.396;2022-12-20T04:46:33;8.40;99.90
28193;DHT22;15473;50.840;3.396;2022-12-20T04:49:03;8.40;99.90
28193;DHT22;15473;50.840;3.396;2022-12-20T04:51:39;8.50;99.90
28193;DHT22;15473;50.840;3.396;2022-12-20T04:54:09;8.50;99.90
28193;DHT22;15473;50.840;3.396;2022-12-20T04:56:45;8.50;99.90
28193;DHT22;15473;50.840;3.396;2022-12-20T04:59:19;8.50;99.90
28193;DHT22;15473;50.840;3.396;2022-12-20T05:01:49;8.50;99.90
28193;DHT22;15473;50.840;3.396;2022-12-20T05:04:19;8.50;99.90
28193;DHT22;15473;50.840;3.396;2022-12-20T05:06:49;8.60;99.90
28193;DHT22;15473;50.840;3.396;2022-12-20T05:09:19;8.60;99.90
28193;DHT22;15473;50.840;3.396;2022-12-20T05:11:49;8.60;99.90
28193;DHT22;15473;50.840;3.396;2022-12-20T05:14:19;8.60;99.90
28193;DHT22;15473;50.840;3.396;2022-12-20T05:16:50;8.70;99.90
28193;DHT22;15473;50.840;3.396;2022-12-20T05:19:27;8.70;99.90
28193;DHT22;15473;50.840;3.396;2022-12-20T05:22:04;8.70;99.90
28193;DHT22;15473;50.840;3.396;2022-12-20T05:24:59;8.70;99.90
28193;DHT22;15473;50.840;3.396;2022-12-20T05:27:53;8.60;99.90
28193;DHT22;15473;50.840;3.396;2022-12-20T05:30:23;8.70;99.90
28193;DHT22;15473;50.840;3.396;2022-12-20T05:33:01;8.70;99.90
28193;DHT22;15473;50.840;3.396;2022-12-20T05:35:31;8.70;99.90
28193;DHT22;15473;50.840;3.396;2022-12-20T05:38:01;8.70;99.90
28193;DHT22;15473;50.840;3.396;2022-12-20T05:40:31;8.70;99.90
28193;DHT22;15473;50.840;3.396;2022-12-20T05:43:08;8.70;99.90
28193;DHT22;15473;50.840;3.396;2022-12-20T05:45:38;8.80;99.90
28193;DHT22;15473;50.840;3.396;2022-12-20T05:48:10;8.80;99.90
28193;DHT22;15473;50.840;3.396;2022-12-20T05:50:46;8.80;99.90
28193;DHT22;15473;50.840;3.396;2022-12-20T05:53:23;8.80;99.90
28193;DHT22;15473;50.840;3.396;2022-12-20T05:55:54;8.90;99.90
28193;DHT22;15473;50.840;3.396;2022-12-20T05:58:31;8.90;99.90
28193;DHT22;15473;50.840;3.396;2022-12-20T06:01:02;8.90;99.90
28193;DHT22;15473;50.840;3.396;2022-12-20T06:03:33;8.90;99.90
28193;DHT22;15473;50.840;3.396;2022-12-20T06:06:03;8.90;99.90
28193;DHT22;15473;50.840;3.396;2022-12-20T06:08:35;8.90;99.90
28193;DHT22;15473;50.840;3.396;2022-12-20T06:11:11;9.00;99.90
28193;DHT22;15473;50.840;3.396;2022-12-20T06:13:41;9.00;99.90
28193;DHT22;15473;50.840;3.396;2022-12-20T06:16:18;9.00;99.90
28193;DHT22;15473;50.840;3.396;2022-12-20T06:18:56;9.00;99.90
28193;DHT22;15473;50.840;3.396;2022-12-20T06:21:34;9.00;99.90
28193;DHT22;15473;50.840;3.396;2022-12-20T06:24:05;9.00;99.90
28193;DHT22;15473;50.840;3.396;2022-12-20T06:26:39;9.00;99.90
28193;DHT22;15473;50.840;3.396;2022-12-20T06:29:09;9.00;99.90
28193;DHT22;15473;50.840;3.396;2022-12-20T06:31:47;9.00;99.90
28193;DHT22;15473;50.840;3.396;2022-12-20T06:34:25;9.00;99.90
28193;DHT22;15473;50.840;3.396;2022-12-20T06:36:55;9.00;99.90
28193;DHT22;15473;50.840;3.396;2022-12-20T06:39:31;9.00;99.90
28193;DHT22;15473;50.840;3.396;2022-12-20T06:42:08;9.00;99.90
28193;DHT22;15473;50.840;3.396;2022-12-20T06:44:39;9.00;99.90
28193;DHT22;15473;50.840;3.396;2022-12-20T06:47:15;8.90;99.90
28193;DHT22;15473;50.840;3.396;2022-12-20T06:49:52;9.00;99.90
28193;DHT22;15473;50.840;3.396;2022-12-20T06:52:24;9.00;99.90
28193;DHT22;15473;50.840;3.396;2022-12-20T06:54:54;9.00;99.90
28193;DHT22;15473;50.840;3.396;2022-12-20T06:57:30;8.90;99.90
28193;DHT22;15473;50.840;3.396;2022-12-20T07:00:01;8.90;99.90
28193;DHT22;15473;50.840;3.396;2022-12-20T07:02:33;8.90;99.90
28193;DHT22;15473;50.840;3.396;2022-12-20T07:05:05;8.90;99.90
28193;DHT22;15473;50.840;3.396;2022-12-20T07:07:41;8.90;99.90
28193;DHT22;15473;50.840;3.396;2022-12-20T07:10:13;8.90;99.90
28193;DHT22;15473;50.840;3.396;2022-12-20T07:12:43;8.90;99.90
28193;DHT22;15473;50.840;3.396;2022-12-20T07:15:13;8.80;99.90
28193;DHT22;15473;50.840;3.396;2022-12-20T07:17:50;8.90;99.90
28193;DHT22;15473;50.840;3.396;2022-12-20T07:20:27;8.80;99.90
28193;DHT22;15473;50.840;3.396;2022-12-20T07:22:58;8.80;99.90
28193;DHT22;15473;50.840;3.396;2022-12-20T07:25:28;8.80;99.90
28193;DHT22;15473;50.840;3.396;2022-12-20T07:27:59;8.80;99.90
28193;DHT22;15473;50.840;3.396;2022-12-20T07:30:29;8.80;99.90
28193;DHT22;15473;50.840;3.396;2022-12-20T07:33:07;8.80;99.90
28193;DHT22;15473;50.840;3.396;2022-12-20T07:35:37;8.80;99.90
28193;DHT22;15473;50.840;3.396;2022-12-20T07:38:08;8.80;99.90
28193;DHT22;15473;50.840;3.396;2022-12-20T07:40:45;8.80;99.90
28193;DHT22;15473;50.840;3.396;2022-12-20T07:43:21;8.80;99.90
28193;DHT22;15473;50.840;3.396;2022-12-20T07:45:55;8.80;99.90
28193;DHT22;15473;50.840;3.396;2022-12-20T07:48:27;8.80;99.90
28193;DHT22;15473;50.840;3.396;2022-12-20T07:51:10;8.70;99.90
28193;DHT22;15473;50.840;3.396;2022-12-20T07:53:53;8.80;99.90
28193;DHT22;15473;50.840;3.396;2022-12-20T07:56:29;8.70;99.90
28193;DHT22;15473;50.840;3.396;2022-12-20T07:59:00;8.80;99.90
28193;DHT22;15473;50.840;3.396;2022-12-20T08:01:37;8.80;99.90
28193;DHT22;15473;50.840;3.396;2022-12-20T08:04:13;8.80;99.90
28193;DHT22;15473;50.840;3.396;2022-12-20T08:06:43;8.80;99.90
28193;DHT22;15473;50.840;3.396;2022-12-20T08:09:15;8.80;99.90
28193;DHT22;15473;50.840;3.396;2022-12-20T08:11:49;8.80;99.90
28193;DHT22;15473;50.840;3.396;2022-12-20T08:14:20;8.80;99.90
28193;DHT22;15473;50.840;3.396;2022-12-20T08:16:57;8.80;99.90
28193;DHT22;15473;50.840;3.396;2022-12-20T08:19:27;8.80;99.90
28193;DHT22;15473;50.840;3.396;2022-12-20T08:21:57;8.80;99.90
28193;DHT22;15473;50.840;3.396;2022-12-20T08:24:28;8.80;99.90
28193;DHT22;15473;50.840;3.396;2022-12-20T08:26:58;8.90;99.90
28193;DHT22;15473;50.840;3.396;2022-12-20T08:29:35;9.00;99.90
28193;DHT22;15473;50.840;3.396;2022-12-20T08:32:11;9.00;99.90
28193;DHT22;15473;50.840;3.396;2022-12-20T08:34:48;9.00;99.90
28193;DHT22;15473;50.840;3.396;2022-12-20T08:37:20;9.00;99.90
28193;DHT22;15473;50.840;3.396;2022-12-20T08:39:56;9.00;99.90
28193;DHT22;15473;50.840;3.396;2022-12-20T08:42:27;9.00;99.90
28193;DHT22;15473;50.840;3.396;2022-12-20T08:45:04;9.00;99.90
28193;DHT22;15473;50.840;3.396;2022-12-20T08:47:36;9.10;99.90
28193;DHT22;15473;50.840;3.396;2022-12-20T08:50:06;9.20;99.90
28193;DHT22;15473;50.840;3.396;2022-12-20T08:52:37;9.20;99.90
28193;DHT22;15473;50.840;3.396;2022-12-20T08:55:08;9.20;99.90
28193;DHT22;15473;50.840;3.396;2022-12-20T08:57:38;9.30;99.90
28193;DHT22;15473;50.840;3.396;2022-12-20T09:00:09;9.30;99.90
28193;DHT22;15473;50.840;3.396;2022-12-20T09:02:46;9.40;99.90
28193;DHT22;15473;50.840;3.396;2022-12-20T09:05:17;9.50;99.90
28193;DHT22;15473;50.840;3.396;2022-12-20T09:07:48;9.40;99.90
28193;DHT22;15473;50.840;3.396;2022-12-20T09:10:18;9.50;99.90
28193;DHT22;15473;50.840;3.396;2022-12-20T09:12:50;9.40;99.90
28193;DHT22;15473;50.840;3.396;2022-12-20T09:15:20;9.40;99.90
28193;DHT22;15473;50.840;3.396;2022-12-20T09:17:57;9.40;99.90
28193;DHT22;15473;50.840;3.396;2022-12-20T09:20:29;9.40;99.90
28193;DHT22;15473;50.840;3.396;2022-12-20T09:23:05;9.40;99.90
28193;DHT22;15473;50.840;3.396;2022-12-20T09:25:37;9.40;99.90
28193;DHT22;15473;50.840;3.396;2022-12-20T09:28:07;9.40;99.90
28193;DHT22;15473;50.840;3.396;2022-12-20T09:30:37;9.40;99.90
28193;DHT22;15473;50.840;3.396;2022-12-20T09:33:09;9.40;99.90
28193;DHT22;15473;50.840;3.396;2022-12-20T09:35:47;9.40;99.90
28193;DHT22;15473;50.840;3.396;2022-12-20T09:38:17;9.40;99.90
28193;DHT22;15473;50.840;3.396;2022-12-20T09:40:59;9.40;99.90
28193;DHT22;15473;50.840;3.396;2022-12-20T09:43:33;9.50;99.90
28193;DHT22;15473;50.840;3.396;2022-12-20T09:46:09;9.50;99.90
28193;DHT22;15473;50.840;3.396;2022-12-20T09:48:45;9.50;99.90
28193;DHT22;15473;50.840;3.396;2022-12-20T09:51:48;9.60;99.90
28193;DHT22;15473;50.840;3.396;2022-12-20T09:55:00;9.60;99.90
28193;DHT22;15473;50.840;3.396;2022-12-20T10:00:26;9.70;99.90
28193;DHT22;15473;50.840;3.396;2022-12-20T10:03:04;9.70;99.90
28193;DHT22;15473;50.840;3.396;2022-12-20T10:05:55;9.70;99.90
28193;DHT22;15473;50.840;3.396;2022-12-20T10:11:32;9.80;99.90
28193;DHT22;15473;50.840;3.396;2022-12-20T10:16:47;9.80;99.90
28193;DHT22;15473;50.840;3.396;2022-12-20T10:24:40;9.90;99.90
28193;DHT22;15473;50.840;3.396;2022-12-20T10:29:53;9.90;99.90
28193;DHT22;15473;50.840;3.396;2022-12-20T10:32:23;9.90;99.90
28193;DHT22;15473;50.840;3.396;2022-12-20T10:40:34;10.10;99.90
28193;DHT22;15473;50.840;3.396;2022-12-20T10:43:21;10.20;99.90
28193;DHT22;15473;50.840;3.396;2022-12-20T10:46:01;10.30;99.90
28193;DHT22;15473;50.840;3.396;2022-12-20T10:48:43;10.30;99.90
28193;DHT22;15473;50.840;3.396;2022-12-20T10:51:18;10.40;99.90
28193;DHT22;15473;50.840;3.396;2022-12-20T10:53:58;10.40;99.90
28193;DHT22;15473;50.840;3.396;2022-12-20T10:56:35;10.50;99.90
28193;DHT22;15473;50.840;3.396;2022-12-20T11:01:50;10.50;99.90
28193;DHT22;15473;50.840;3.396;2022-12-20T11:04:26;10.50;99.90
28193;DHT22;15473;50.840;3.396;2022-12-20T11:06:57;10.40;99.90
28193;DHT22;15473;50.840;3.396;2022-12-20T11:09:30;10.50;99.90
28193;DHT22;15473;50.840;3.396;2022-12-20T11:12:15;10.40;99.90
28193;DHT22;15473;50.840;3.396;2022-12-20T11:14:46;10.40;99.90
28193;DHT22;15473;50.840;3.396;2022-12-20T11:17:40;10.40;99.90
28193;DHT22;15473;50.840;3.396;2022-12-20T11:35:17;10.40;99.90
28193;DHT22;15473;50.840;3.396;2022-12-20T11:44:14;10.30;99.90
28193;DHT22;15473;50.840;3.396;2022-12-20T11:49:45;10.30;99.90
28193;DHT22;15473;50.840;3.396;2022-12-20T11:55:17;10.20;99.90
28193;DHT22;15473;50.840;3.396;2022-12-20T11:57:45;10.30;99.90
28193;DHT22;15473;50.840;3.396;2022-12-20T12:00:15;10.20;99.90
28193;DHT22;15473;50.840;3.396;2022-12-20T12:03:00;10.20;99.90
28193;DHT22;15473;50.840;3.396;2022-12-20T12:05:39;10.20;99.90
28193;DHT22;15473;50.840;3.396;2022-12-20T12:08:31;10.30;99.90
28193;DHT22;15473;50.840;3.396;2022-12-20T12:11:25;10.20;99.90
28193;DHT22;15473;50.840;3.396;2022-12-20T12:14:03;10.20;99.90
28193;DHT22;15473;50.840;3.396;2022-12-20T12:16:40;10.20;99.90
28193;DHT22;15473;50.840;3.396;2022-12-20T12:19:17;10.20;99.90
28193;DHT22;15473;50.840;3.396;2022-12-20T12:21:57;10.20;99.90
28193;DHT22;15473;50.840;3.396;2022-12-20T12:27:02;10.20;99.90
28193;DHT22;15473;50.840;3.396;2022-12-20T12:29:39;10.20;99.90
28193;DHT22;15473;50.840;3.396;2022-12-20T12:34:58;10.20;99.90
28193;DHT22;15473;50.840;3.396;2022-12-20T12:37:49;10.10;99.90
28193;DHT22;15473;50.840;3.396;2022-12-20T12:40:42;10.10;99.90
28193;DHT22;15473;50.840;3.396;2022-12-20T12:43:48;10.10;99.90
28193;DHT22;15473;50.840;3.396;2022-12-20T12:46:31;10.10;99.90
28193;DHT22;15473;50.840;3.396;2022-12-20T12:49:09;10.00;99.90
28193;DHT22;15473;50.840;3.396;2022-12-20T12:51:39;10.10;99.90
28193;DHT22;15473;50.840;3.396;2022-12-20T12:54:40;10.10;99.90
28193;DHT22;15473;50.840;3.396;2022-12-20T12:57:16;10.10;99.90
28193;DHT22;15473;50.840;3.396;2022-12-20T12:59:53;10.10;99.90
28193;DHT22;15473;50.840;3.396;2022-12-20T13:02:26;10.10;99.90
28193;DHT22;15473;50.840;3.396;2022-12-20T13:05:28;10.10;99.90
28193;DHT22;15473;50.840;3.396;2022-12-20T13:07:42;10.10;99.90
28193;DHT22;15473;50.840;3.396;2022-12-20T13:13:00;10.10;99.90
28193;DHT22;15473;50.840;3.396;2022-12-20T13:21:15;10.10;99.90
28193;DHT22;15473;50.840;3.396;2022-12-20T13:23:19;10.10;99.90
28193;DHT22;15473;50.840;3.396;2022-12-20T13:25:50;10.00;99.90
28193;DHT22;15473;50.840;3.396;2022-12-20T13:34:33;10.00;99.90
28193;DHT22;15473;50.840;3.396;2022-12-20T13:36:41;10.00;99.90
28193;DHT22;15473;50.840;3.396;2022-12-20T13:44:55;10.00;99.90
28193;DHT22;15473;50.840;3.396;2022-12-20T13:50:39;10.00;99.90
28193;DHT22;15473;50.840;3.396;2022-12-20T13:53:05;10.00;99.90
28193;DHT22;15473;50.840;3.396;2022-12-20T13:55:39;9.90;99.90
28193;DHT22;15473;50.840;3.396;2022-12-20T13:58:16;9.90;99.90
28193;DHT22;15473;50.840;3.396;2022-12-20T14:00:47;9.90;99.90
28193;DHT22;15473;50.840;3.396;2022-12-20T14:03:23;9.90;99.90
28193;DHT22;15473;50.840;3.396;2022-12-20T14:06:04;9.90;99.90
28193;DHT22;15473;50.840;3.396;2022-12-20T14:08:44;9.90;99.90
28193;DHT22;15473;50.840;3.396;2022-12-20T14:11:24;9.90;99.90
28193;DHT22;15473;50.840;3.396;2022-12-20T14:14:03;9.90;99.90
28193;DHT22;15473;50.840;3.396;2022-12-20T14:16:37;9.80;99.90
28193;DHT22;15473;50.840;3.396;2022-12-20T14:19:14;9.80;99.90
28193;DHT22;15473;50.840;3.396;2022-12-20T14:21:44;9.80;99.90
28193;DHT22;15473;50.840;3.396;2022-12-20T14:24:20;9.80;99.90
28193;DHT22;15473;50.840;3.396;2022-12-20T14:26:52;9.70;99.90
28193;DHT22;15473;50.840;3.396;2022-12-20T14:29:30;9.70;99.90
28193;DHT22;15473;50.840;3.396;2022-12-20T14:32:04;9.80;99.90
28193;DHT22;15473;50.840;3.396;2022-12-20T14:34:36;9.70;99.90
28193;DHT22;15473;50.840;3.396;2022-12-20T14:37:23;9.70;99.90
28193;DHT22;15473;50.840;3.396;2022-12-20T14:42:42;9.60;99.90
28193;DHT22;15473;50.840;3.396;2022-12-20T14:45:22;9.60;99.90
28193;DHT22;15473;50.840;3.396;2022-12-20T14:48:13;9.70;99.90
28193;DHT22;15473;50.840;3.396;2022-12-20T14:50:52;9.70;99.90
28193;DHT22;15473;50.840;3.396;2022-12-20T14:53:29;9.60;99.90
28193;DHT22;15473;50.840;3.396;2022-12-20T14:56:12;9.60;99.90
28193;DHT22;15473;50.840;3.396;2022-12-20T14:58:39;9.60;99.90
28193;DHT22;15473;50.840;3.396;2022-12-20T15:01:22;9.60;99.90
28193;DHT22;15473;50.840;3.396;2022-12-20T15:03:57;9.50;99.90
28193;DHT22;15473;50.840;3.396;2022-12-20T15:09:32;9.50;99.90
28193;DHT22;15473;50.840;3.396;2022-12-20T15:12:02;9.50;99.90
28193;DHT22;15473;50.840;3.396;2022-12-20T15:14:34;9.50;99.90
28193;DHT22;15473;50.840;3.396;2022-12-20T15:17:12;9.50;99.90
28193;DHT22;15473;50.840;3.396;2022-12-20T15:19:50;9.50;99.90
28193;DHT22;15473;50.840;3.396;2022-12-20T15:22:21;9.50;99.90
28193;DHT22;15473;50.840;3.396;2022-12-20T15:24:53;9.50;99.90
28193;DHT22;15473;50.840;3.396;2022-12-20T15:27:29;9.50;99.90
28193;DHT22;15473;50.840;3.396;2022-12-20T15:30:12;9.50;99.90
28193;DHT22;15473;50.840;3.396;2022-12-20T15:32:49;9.40;99.90
28193;DHT22;15473;50.840;3.396;2022-12-20T15:35:33;9.50;99.90
28193;DHT22;15473;50.840;3.396;2022-12-20T15:38:14;9.40;99.90
28193;DHT22;15473;50.840;3.396;2022-12-20T15:40:49;9.40;99.90
28193;DHT22;15473;50.840;3.396;2022-12-20T15:43:20;9.40;99.90
28193;DHT22;15473;50.840;3.396;2022-12-20T15:45:52;9.40;99.90
28193;DHT22;15473;50.840;3.396;2022-12-20T15:48:28;9.40;99.90
28193;DHT22;15473;50.840;3.396;2022-12-20T15:51:00;9.40;99.90
28193;DHT22;15473;50.840;3.396;2022-12-20T15:53:32;9.30;99.90
28193;DHT22;15473;50.840;3.396;2022-12-20T15:56:03;9.30;99.90
28193;DHT22;15473;50.840;3.396;2022-12-20T15:58:39;9.30;99.90
28193;DHT22;15473;50.840;3.396;2022-12-20T16:01:18;9.40;99.90
28193;DHT22;15473;50.840;3.396;2022-12-20T16:03:48;9.30;99.90
28193;DHT22;15473;50.840;3.396;2022-12-20T16:06:19;9.40;99.90
28193;DHT22;15473;50.840;3.396;2022-12-20T16:08:58;9.30;99.90
28193;DHT22;15473;50.840;3.396;2022-12-20T16:11:29;9.30;99.90
28193;DHT22;15473;50.840;3.396;2022-12-20T16:14:03;9.30;99.90
28193;DHT22;15473;50.840;3.396;2022-12-20T16:16:36;9.30;99.90
28193;DHT22;15473;50.840;3.396;2022-12-20T16:19:12;9.30;99.90
28193;DHT22;15473;50.840;3.396;2022-12-20T16:21:50;9.30;99.90
28193;DHT22;15473;50.840;3.396;2022-12-20T16:24:40;9.30;99.90
28193;DHT22;15473;50.840;3.396;2022-12-20T16:27:11;9.30;99.90
28193;DHT22;15473;50.840;3.396;2022-12-20T16:29:41;9.30;99.90
28193;DHT22;15473;50.840;3.396;2022-12-20T16:32:20;9.30;99.90
28193;DHT22;15473;50.840;3.396;2022-12-20T16:34:50;9.30;99.90
28193;DHT22;15473;50.840;3.396;2022-12-20T16:37:27;9.30;99.90
28193;DHT22;15473;50.840;3.396;2022-12-20T16:40:04;9.30;99.90
28193;DHT22;15473;50.840;3.396;2022-12-20T16:42:41;9.30;99.90
28193;DHT22;15473;50.840;3.396;2022-12-20T16:45:29;9.30;99.90
28193;DHT22;15473;50.840;3.396;2022-12-20T16:48:06;9.30;99.90
28193;DHT22;15473;50.840;3.396;2022-12-20T16:50:42;9.30;99.90
28193;DHT22;15473;50.840;3.396;2022-12-20T16:53:18;9.30;99.90
28193;DHT22;15473;50.840;3.396;2022-12-20T16:55:48;9.30;99.90
28193;DHT22;15473;50.840;3.396;2022-12-20T16:58:18;9.30;99.90
28193;DHT22;15473;50.840;3.396;2022-12-20T17:00:53;9.30;99.90
28193;DHT22;15473;50.840;3.396;2022-12-20T17:03:23;9.30;99.90
28193;DHT22;15473;50.840;3.396;2022-12-20T17:05:53;9.30;99.90
28193;DHT22;15473;50.840;3.396;2022-12-20T17:08:32;9.30;99.90
28193;DHT22;15473;50.840;3.396;2022-12-20T17:11:16;9.30;99.90
28193;DHT22;15473;50.840;3.396;2022-12-20T17:13:48;9.30;99.90
28193;DHT22;15473;50.840;3.396;2022-12-20T17:16:18;9.30;99.90
28193;DHT22;15473;50.840;3.396;2022-12-20T17:18:57;9.30;99.90
28193;DHT22;15473;50.840;3.396;2022-12-20T17:21:43;9.30;99.90
28193;DHT22;15473;50.840;3.396;2022-12-20T17:24:21;9.30;99.90
28193;DHT22;15473;50.840;3.396;2022-12-20T17:26:52;9.30;99.90
28193;DHT22;15473;50.840;3.396;2022-12-20T17:29:23;9.30;99.90
28193;DHT22;15473;50.840;3.396;2022-12-20T17:31:53;9.30;99.90
28193;DHT22;15473;50.840;3.396;2022-12-20T17:34:30;9.30;99.90
28193;DHT22;15473;50.840;3.396;2022-12-20T17:37:07;9.30;99.90
28193;DHT22;15473;50.840;3.396;2022-12-20T17:39:39;9.20;99.90
28193;DHT22;15473;50.840;3.396;2022-12-20T17:42:15;9.20;99.90
28193;DHT22;15473;50.840;3.396;2022-12-20T17:44:45;9.30;99.90
28193;DHT22;15473;50.840;3.396;2022-12-20T17:47:17;9.20;99.90
28193;DHT22;15473;50.840;3.396;2022-12-20T17:49:47;9.30;99.90
28193;DHT22;15473;50.840;3.396;2022-12-20T17:52:17;9.20;99.90
28193;DHT22;15473;50.840;3.396;2022-12-20T17:54:49;9.20;99.90
28193;DHT22;15473;50.840;3.396;2022-12-20T17:57:26;9.30;99.90
28193;DHT22;15473;50.840;3.396;2022-12-20T17:59:56;9.20;99.90
28193;DHT22;15473;50.840;3.396;2022-12-20T18:02:26;9.20;99.90
28193;DHT22;15473;50.840;3.396;2022-12-20T18:05:02;9.20;99.90
28193;DHT22;15473;50.840;3.396;2022-12-20T18:07:34;9.20;99.90
28193;DHT22;15473;50.840;3.396;2022-12-20T18:10:07;9.20;99.90